Time;durP1;ratioP1;P1;durP2;ratioP2;P2;SDS_P1;SDS_P2;PMS_P1;PMS_P2;Temp;Humidity;BMP_temperature;BMP_pressure;BME280_temperature;BME280_humidity;BME280_pressure;Samples;Min_cycle;Max_cycle;Signal;HPM_P1;HPM_P2
2023/05/10 00:02:24;;;;;;;3.97;2.58;;;12.10;99.90;;;11.47;100.00;97237.38;4993370;28;20078;-81
2023/05/10 00:04:52;;;;;;;5.57;2.80;;;12.10;99.90;;;11.50;100.00;97232.88;4971174;28;20069;-81
2023/05/10 00:07:19;;;;;;;3.63;2.40;;;12.00;99.90;;;11.52;100.00;97227.59;4971917;28;20077;-81
2023/05/10 00:09:46;;;;;;;3.17;2.88;;;12.00;99.90;;;11.49;100.00;97225.16;4972250;28;20363;-82
2023/05/10 00:12:14;;;;;;;3.35;2.70;;;12.10;99.90;;;11.59;100.00;97225.53;4969067;28;20055;-81
2023/05/10 00:14:41;;;;;;;3.08;2.60;;;12.10;99.90;;;11.52;100.00;97223.25;4953122;28;20053;-81
2023/05/10 00:17:08;;;;;;;4.78;2.70;;;12.00;99.90;;;11.54;100.00;97224.91;4968714;28;20038;-82
2023/05/10 00:19:35;;;;;;;5.40;2.47;;;12.10;99.90;;;11.57;100.00;97224.78;4972510;28;20397;-82
2023/05/10 00:22:02;;;;;;;3.03;2.53;;;12.00;99.90;;;11.48;100.00;97216.50;4969568;28;20145;-81
2023/05/10 00:24:30;;;;;;;4.18;2.25;;;12.10;99.90;;;11.61;100.00;97214.13;4970657;28;20055;-83
2023/05/10 00:26:57;;;;;;;2.50;2.00;;;12.10;99.90;;;11.58;100.00;97221.22;4970188;28;20769;-80
2023/05/10 00:29:24;;;;;;;2.90;1.90;;;12.10;99.90;;;11.70;100.00;97207.59;4950155;28;20465;-80
2023/05/10 00:31:51;;;;;;;2.45;2.00;;;12.20;99.90;;;11.71;100.00;97207.50;4972773;28;20057;-80
2023/05/10 00:34:18;;;;;;;10.40;3.28;;;12.10;99.90;;;11.52;100.00;97209.41;4970930;28;20047;-80
2023/05/10 00:36:45;;;;;;;3.00;2.25;;;12.10;99.90;;;11.66;100.00;97206.09;4968492;28;20101;-80
2023/05/10 00:39:12;;;;;;;7.03;3.08;;;12.10;99.90;;;11.69;100.00;97205.91;4970650;28;20054;-82
2023/05/10 00:41:41;;;;;;;6.82;3.90;;;12.00;99.90;;;11.68;100.00;97201.66;4968513;28;20047;-81
2023/05/10 00:44:08;;;;;;;6.20;4.70;;;12.00;99.90;;;11.69;100.00;97200.72;4969044;28;20050;-83
2023/05/10 00:46:35;;;;;;;4.88;4.38;;;12.00;99.90;;;11.58;100.00;97206.47;4971312;28;20137;-81
2023/05/10 00:49:04;;;;;;;6.72;5.25;;;12.00;99.90;;;11.56;100.00;97208.31;4971323;28;20055;-82
2023/05/10 00:51:31;;;;;;;9.30;5.35;;;12.00;99.90;;;11.59;100.00;97204.72;4971370;28;20094;-81
2023/05/10 00:53:58;;;;;;;5.75;4.28;;;12.00;99.90;;;11.48;100.00;97216.50;4971905;28;20043;-82
2023/05/10 00:56:28;;;;;;;7.40;5.13;;;12.00;99.90;;;11.50;100.00;97204.28;4951895;28;20119;-81
2023/05/10 00:58:56;;;;;;;8.07;4.32;;;12.10;99.90;;;11.61;100.00;97211.53;4968328;28;20141;-81
2023/05/10 01:01:23;;;;;;;5.20;4.38;;;12.10;99.90;;;11.56;100.00;97208.31;4963953;28;20142;-83
2023/05/10 01:03:50;;;;;;;6.18;5.40;;;12.10;99.90;;;11.59;100.00;97207.34;4969576;28;20065;-83
2023/05/10 01:06:17;;;;;;;5.55;5.05;;;12.10;99.90;;;11.63;100.00;97199.28;4966618;28;20051;-82
2023/05/10 01:08:44;;;;;;;8.77;6.25;;;12.20;99.90;;;11.54;100.00;97217.97;4966533;28;20415;-81
2023/05/10 01:11:11;;;;;;;6.90;5.65;;;12.20;99.90;;;11.71;100.00;97224.88;4965728;28;20047;-82
2023/05/10 01:13:42;;;;;;;8.30;7.50;;;12.10;99.90;;;11.65;100.00;97210.41;4965595;28;20077;-84
2023/05/10 01:16:09;;;;;;;7.28;6.50;;;12.10;99.90;;;11.78;100.00;97218.41;4983959;28;20053;-83
2023/05/10 01:18:40;;;;;;;8.48;6.97;;;12.10;99.90;;;11.64;100.00;97228.72;4969314;28;20129;-81
2023/05/10 01:21:19;;;;;;;7.25;6.07;;;12.10;99.90;;;11.55;100.00;97231.81;4961242;28;20050;-83
2023/05/10 01:24:28;;;;;;;6.97;5.57;;;12.20;99.90;;;11.60;100.00;97222.00;4982239;28;20046;-81
2023/05/10 01:27:16;;;;;;;7.07;6.38;;;12.10;99.90;;;11.53;100.00;97213.69;4947064;28;20050;-84
2023/05/10 01:30:40;;;;;;;5.72;5.15;;;12.10;99.90;;;11.47;100.00;97212.25;4977638;28;20070;-85
2023/05/10 01:33:41;;;;;;;5.10;4.60;;;12.10;99.90;;;11.56;100.00;97216.09;4937075;28;20101;-83
2023/05/10 01:36:25;;;;;;;7.00;4.43;;;12.00;99.90;;;11.55;100.00;97227.44;4950457;28;20522;-83
2023/05/10 01:39:41;;;;;;;4.75;4.25;;;12.00;99.90;;;11.50;100.00;97216.44;4967549;28;20049;-82
2023/05/10 01:42:16;;;;;;;6.63;4.00;;;12.00;99.90;;;11.47;100.00;97217.44;4968185;28;20050;-84
2023/05/10 01:44:58;;;;;;;6.75;5.22;;;12.00;99.90;;;11.40;100.00;97221.25;4950696;28;20110;-87
2023/05/10 01:47:32;;;;;;;5.00;4.50;;;12.00;99.90;;;11.38;100.00;97210.13;4950624;28;20058;-82
2023/05/10 01:50:03;;;;;;;7.25;4.13;;;12.00;99.90;;;11.34;100.00;97213.78;4972207;28;20443;-82
2023/05/10 01:52:42;;;;;;;8.32;4.40;;;12.00;99.90;;;11.30;100.00;97213.09;4992113;28;20057;-82
2023/05/10 01:55:13;;;;;;;6.28;4.10;;;12.00;99.90;;;11.32;100.00;97217.41;4969221;28;20054;-82
2023/05/10 01:57:44;;;;;;;8.32;4.00;;;12.00;99.90;;;11.32;100.00;97220.00;4974902;28;20062;-81
2023/05/10 02:00:13;;;;;;;8.52;4.55;;;12.00;99.90;;;11.45;100.00;97226.25;4959223;28;20058;-81
2023/05/10 02:02:46;;;;;;;11.80;5.10;;;11.90;99.90;;;11.48;100.00;97233.88;4972860;28;20445;-81
2023/05/10 02:05:15;;;;;;;;;;;11.90;99.90;;;11.34;100.00;97234.59;4975957;28;20054;-83
2023/05/10 02:07:43;;;;;;;6.43;5.30;;;11.90;99.90;;;11.31;100.00;97234.72;4971052;28;19922;-83
2023/05/10 02:10:11;;;;;;;7.25;6.60;;;11.90;99.90;;;11.32;100.00;97233.00;4958962;28;20443;-81
2023/05/10 02:12:45;;;;;;;11.00;6.57;;;11.90;99.90;;;11.28;100.00;97234.88;4974741;28;20126;-83
2023/05/10 02:15:17;;;;;;;7.95;5.95;;;11.90;99.90;;;11.45;100.00;97245.28;4972973;28;20044;-81
2023/05/10 02:17:46;;;;;;;8.02;7.22;;;11.90;99.90;;;11.41;100.00;97235.94;4977197;28;20050;-83
2023/05/10 02:20:16;;;;;;;8.18;7.38;;;12.00;99.90;;;11.39;100.00;97235.19;4973745;28;20065;-82
2023/05/10 02:22:45;;;;;;;8.77;7.53;;;11.90;99.90;;;11.43;100.00;97241.91;4963324;28;20090;-84
2023/05/10 02:25:13;;;;;;;9.43;7.03;;;12.00;99.90;;;11.46;100.00;97241.75;4968136;28;20043;-82
2023/05/10 02:27:45;;;;;;;6.78;6.07;;;12.00;99.90;;;11.55;100.00;97247.41;4967656;28;20038;-81
2023/05/10 02:30:14;;;;;;;11.73;7.43;;;12.00;99.90;;;11.47;100.00;97237.38;4967498;28;20055;-82
2023/05/10 02:32:42;;;;;;;7.70;6.78;;;12.10;99.90;;;11.54;100.00;97235.31;4969551;28;20050;-83
2023/05/10 02:35:11;;;;;;;10.70;6.80;;;12.10;99.90;;;11.56;100.00;97242.09;4989657;28;20054;-82
2023/05/10 02:37:39;;;;;;;7.55;6.80;;;12.10;99.90;;;11.47;100.00;97238.25;4959537;28;20046;-84
2023/05/10 02:40:08;;;;;;;8.18;7.13;;;12.10;99.90;;;11.42;100.00;97245.41;4973458;28;20042;-82
2023/05/10 02:42:38;;;;;;;11.80;6.55;;;12.10;99.90;;;11.44;100.00;97253.97;4971760;28;20403;-81
2023/05/10 02:45:18;;;;;;;7.15;5.75;;;12.10;99.90;;;11.59;100.00;97254.13;4964055;28;20144;-82
2023/05/10 02:47:45;;;;;;;9.02;5.82;;;12.10;99.90;;;11.62;100.00;97249.59;4971505;28;20055;-80
2023/05/10 02:50:13;;;;;;;8.40;6.80;;;12.10;99.90;;;11.60;100.00;97248.00;4968188;28;20098;-83
2023/05/10 02:52:46;;;;;;;6.93;5.45;;;12.10;99.90;;;11.69;100.00;97248.34;4972236;28;21578;-82
2023/05/10 02:55:16;;;;;;;7.57;6.68;;;12.10;99.90;;;11.64;100.00;97249.53;4971703;28;20043;-82
2023/05/10 02:57:52;;;;;;;8.93;6.43;;;12.20;99.90;;;11.71;100.00;97243.91;4970250;28;20051;-86
2023/05/10 03:00:20;;;;;;;8.27;6.35;;;12.20;99.90;;;11.70;100.00;97246.59;4969261;28;20057;-83
2023/05/10 03:02:48;;;;;;;11.52;7.18;;;12.20;99.90;;;11.68;100.00;97243.25;4971751;28;20201;-82
2023/05/10 03:05:15;;;;;;;8.98;7.30;;;12.20;99.90;;;11.71;100.00;97246.50;4958815;28;20057;-83
2023/05/10 03:07:43;;;;;;;11.52;8.43;;;12.20;99.90;;;11.71;100.00;97243.91;4973413;28;20516;-83
2023/05/10 03:10:10;;;;;;;10.68;9.48;;;12.20;99.90;;;11.56;100.00;97249.91;4965471;28;20059;-83
2023/05/10 03:12:55;;;;;;;12.38;9.88;;;12.20;99.90;;;11.61;100.00;97252.25;4964081;28;20518;-83
2023/05/10 03:15:59;;;;;;;10.48;9.35;;;12.20;99.90;;;11.54;100.00;97253.50;4986448;28;20518;-84
2023/05/10 03:18:55;;;;;;;9.75;8.75;;;12.20;99.90;;;11.65;100.00;97258.97;4974912;28;21058;-82
2023/05/10 03:21:26;;;;;;;10.55;8.43;;;12.20;99.90;;;11.68;100.00;97258.84;4954886;28;20066;-84
2023/05/10 03:24:08;;;;;;;9.77;8.80;;;12.20;99.90;;;11.64;100.00;97260.75;4958553;28;20533;-84
2023/05/10 03:26:37;;;;;;;10.15;7.63;;;12.20;99.90;;;11.69;100.00;97268.31;4971138;28;20043;-84
2023/05/10 03:29:06;;;;;;;10.90;8.90;;;12.20;99.90;;;11.69;100.00;97258.75;4957601;28;20105;-83
2023/05/10 03:31:33;;;;;;;9.35;8.40;;;12.20;99.90;;;11.61;100.00;97257.47;4960619;28;20070;-83
2023/05/10 03:34:01;;;;;;;8.45;7.35;;;12.20;99.90;;;11.70;100.00;97265.63;4975099;28;20082;-83
2023/05/10 03:36:28;;;;;;;9.60;8.38;;;12.20;99.90;;;11.77;100.00;97266.16;4972589;28;20073;-84
2023/05/10 03:38:55;;;;;;;9.80;8.80;;;12.20;99.90;;;11.70;100.00;97273.44;4973666;28;20110;-83
2023/05/10 03:41:23;;;;;;;9.23;8.32;;;12.20;99.90;;;11.72;100.00;97268.13;4963832;28;20050;-83
2023/05/10 03:43:50;;;;;;;10.85;9.13;;;12.30;99.90;;;11.61;100.00;97265.25;4955527;28;20598;-84
2023/05/10 03:46:17;;;;;;;10.15;9.15;;;12.30;99.90;;;11.71;100.00;97264.72;4963025;28;20042;-83
2023/05/10 03:48:45;;;;;;;10.90;9.52;;;12.20;99.90;;;11.74;100.00;97263.69;4956697;28;20055;-84
2023/05/10 03:51:12;;;;;;;13.15;9.60;;;12.30;99.90;;;11.58;100.00;97268.84;4975647;28;20050;-83
2023/05/10 03:53:39;;;;;;;11.70;9.50;;;12.30;99.90;;;11.70;100.00;97268.25;4975338;28;20055;-82
2023/05/10 03:56:06;;;;;;;10.32;8.65;;;12.30;99.90;;;11.61;100.00;97271.31;4966034;28;20047;-82
2023/05/10 03:58:33;;;;;;;14.75;9.20;;;12.30;99.90;;;11.64;100.00;97265.94;4972954;28;20051;-83
2023/05/10 04:01:01;;;;;;;8.85;6.43;;;12.30;99.90;;;11.48;100.00;97263.31;4980264;28;20055;-82
2023/05/10 04:03:28;;;;;;;5.53;3.50;;;12.20;99.90;;;11.40;100.00;97272.41;4970407;28;20085;-82
2023/05/10 04:06:02;;;;;;;10.40;5.18;;;12.10;99.90;;;11.40;100.00;97270.63;4976556;28;20070;-81
2023/05/10 04:08:31;;;;;;;6.13;4.68;;;12.10;99.90;;;11.37;100.00;97273.41;4980904;28;20062;-82
2023/05/10 04:11:09;;;;;;;6.20;3.88;;;12.00;99.90;;;11.35;100.00;97269.19;4978537;28;20496;-82
2023/05/10 04:13:37;;;;;;;5.88;4.55;;;12.10;99.90;;;11.28;100.00;97268.66;4987044;28;20781;-81
2023/05/10 04:16:05;;;;;;;6.80;3.65;;;12.00;99.90;;;11.34;100.00;97268.38;4971897;28;20053;-81
2023/05/10 04:18:32;;;;;;;6.07;4.30;;;12.00;99.90;;;11.32;100.00;97269.38;4946310;28;20129;-82
2023/05/10 04:20:59;;;;;;;6.03;4.32;;;12.00;99.90;;;11.28;100.00;97287.69;4973005;28;20042;-81
2023/05/10 04:23:30;;;;;;;5.68;4.85;;;12.00;99.90;;;11.31;100.00;97289.28;4960510;28;20062;-81
2023/05/10 04:26:01;;;;;;;6.10;4.50;;;12.00;99.90;;;11.29;100.00;97286.78;4968090;28;20046;-82
2023/05/10 04:28:28;;;;;;;5.78;4.43;;;12.00;99.90;;;11.25;100.00;97295.66;4971288;28;20046;-82
2023/05/10 04:31:22;;;;;;;5.75;5.15;;;12.00;99.90;;;11.28;100.00;97294.66;4980119;28;20048;-81
2023/05/10 04:33:50;;;;;;;11.80;5.03;;;12.00;99.90;;;11.30;100.00;97290.22;4967726;28;20406;-81
2023/05/10 04:36:17;;;;;;;6.05;5.15;;;12.00;99.90;;;11.32;100.00;97301.38;4969818;28;20050;-81
2023/05/10 04:38:44;;;;;;;5.80;4.97;;;12.00;99.90;;;11.42;100.00;97304.34;4970536;28;20122;-83
2023/05/10 04:41:13;;;;;;;7.18;4.95;;;12.00;99.90;;;11.43;100.00;97308.66;4968453;28;20051;-82
2023/05/10 04:43:41;;;;;;;7.00;5.25;;;12.00;99.90;;;11.44;100.00;97297.31;4955221;28;20782;-81
2023/05/10 04:46:10;;;;;;;6.15;4.85;;;12.00;99.90;;;11.54;100.00;97305.47;4974698;28;20046;-82
2023/05/10 04:48:38;;;;;;;7.13;5.72;;;11.90;99.90;;;11.36;100.00;97294.25;4973525;28;20046;-82
2023/05/10 04:51:06;;;;;;;10.60;7.45;;;12.00;99.90;;;11.33;100.00;97299.63;4971554;28;20047;-83
2023/05/10 04:53:36;;;;;;;11.88;8.73;;;12.00;99.90;;;11.40;100.00;97306.19;4951767;28;20047;-83
2023/05/10 04:56:04;;;;;;;8.05;5.50;;;12.00;99.90;;;11.36;100.00;97318.50;4970834;28;20132;-81
2023/05/10 04:58:31;;;;;;;5.88;5.03;;;12.00;99.90;;;11.40;100.00;97320.00;4965383;28;20059;-81
2023/05/10 05:01:06;;;;;;;8.93;6.40;;;12.00;99.90;;;11.47;100.00;97317.94;4953970;28;20047;-83
2023/05/10 05:03:34;;;;;;;5.90;5.03;;;12.00;99.90;;;11.44;100.00;97326.75;4974373;28;20533;-80
2023/05/10 05:06:01;;;;;;;9.40;5.90;;;12.00;99.90;;;11.41;100.00;97331.28;4956082;28;20082;-79
2023/05/10 05:08:29;;;;;;;5.55;5.00;;;12.00;99.90;;;11.44;100.00;97328.50;4973953;28;20185;-80
2023/05/10 05:10:56;;;;;;;5.70;4.63;;;12.00;99.90;;;11.54;100.00;97340.13;4976194;28;20055;-81
2023/05/10 05:13:23;;;;;;;7.00;4.90;;;11.90;99.90;;;11.58;100.00;97333.84;4975397;28;20046;-80
2023/05/10 05:15:51;;;;;;;7.78;5.05;;;12.00;99.90;;;11.62;100.00;97342.34;4973922;28;20050;-82
2023/05/10 05:18:19;;;;;;;6.85;5.18;;;12.00;99.90;;;11.64;100.00;97333.53;4970638;28;20110;-79
2023/05/10 05:20:47;;;;;;;7.13;4.78;;;12.10;99.90;;;11.59;100.00;97340.75;4978720;28;20055;-80
2023/05/10 05:23:14;;;;;;;6.30;4.55;;;12.10;99.90;;;11.53;100.00;97343.63;4969647;28;20054;-81
2023/05/10 05:25:41;;;;;;;6.65;4.50;;;12.10;99.90;;;11.64;100.00;97346.53;4977462;28;20069;-80
2023/05/10 05:28:09;;;;;;;6.05;3.13;;;12.20;99.90;;;11.65;100.00;97352.56;4978298;28;20066;-81
2023/05/10 05:30:36;;;;;;;5.93;4.32;;;12.10;99.90;;;11.70;100.00;97337.59;4993331;28;20385;-83
2023/05/10 05:33:03;;;;;;;8.50;2.80;;;12.10;99.90;;;11.72;100.00;97339.22;4976852;28;20058;-81
2023/05/10 05:35:30;;;;;;;6.25;2.80;;;12.10;99.90;;;11.60;100.00;97334.59;4969859;28;20283;-81
2023/05/10 05:38:00;;;;;;;6.05;2.83;;;12.20;99.90;;;11.74;100.00;97323.50;4969368;28;20400;-81
2023/05/10 05:40:27;;;;;;;3.83;2.60;;;12.20;99.90;;;12.05;100.00;97324.56;4971662;28;20077;-81
2023/05/10 05:42:57;;;;;;;4.15;2.63;;;12.20;99.90;;;11.99;100.00;97315.31;4961168;28;20138;-80
2023/05/10 05:45:28;;;;;;;5.82;3.10;;;12.30;99.90;;;12.10;100.00;97307.78;4948299;28;20055;-87
2023/05/10 05:47:55;;;;;;;5.30;3.22;;;12.40;99.90;;;12.08;100.00;97309.63;4988056;28;20051;-80
2023/05/10 05:50:25;;;;;;;4.30;2.80;;;12.40;99.90;;;12.39;100.00;97308.00;4971163;28;20105;-83
2023/05/10 05:52:52;;;;;;;4.45;3.25;;;12.50;99.90;;;12.25;100.00;97290.53;4977653;28;20062;-80
2023/05/10 05:55:20;;;;;;;3.70;2.40;;;12.60;99.90;;;12.50;100.00;97297.84;4971797;28;20568;-83
2023/05/10 05:57:47;;;;;;;3.13;2.10;;;12.60;99.90;;;12.85;100.00;97288.97;4969873;28;20145;-81
2023/05/10 06:00:15;;;;;;;5.22;2.47;;;12.80;99.90;;;12.81;100.00;97290.06;4977897;28;20134;-82
2023/05/10 06:02:42;;;;;;;3.33;2.47;;;12.80;99.90;;;12.52;100.00;97287.31;4978984;28;20111;-83
2023/05/10 06:05:09;;;;;;;3.40;2.00;;;12.80;99.90;;;12.93;100.00;97271.13;4973160;28;20149;-82
2023/05/10 06:07:36;;;;;;;6.60;2.53;;;12.90;99.90;;;12.91;100.00;97273.84;4973718;28;20159;-83
2023/05/10 06:10:05;;;;;;;5.30;1.90;;;;;;;13.03;100.00;97272.31;4969902;28;20062;-82
2023/05/10 06:12:35;;;;;;;3.90;1.87;;;13.30;99.90;;;13.20;100.00;97273.94;4948686;28;20054;-81
2023/05/10 06:15:04;;;;;;;3.58;1.92;;;13.20;99.90;;;12.96;100.00;97264.00;4961384;28;20054;-83
2023/05/10 06:17:31;;;;;;;3.17;1.88;;;13.20;99.90;;;13.02;100.00;97261.97;4971046;28;20082;-82
2023/05/10 06:19:59;;;;;;;3.30;1.92;;;13.40;99.90;;;13.01;100.00;97276.75;4977614;28;20083;-81
2023/05/10 06:22:26;;;;;;;6.13;2.45;;;13.30;99.90;;;12.98;100.00;97274.34;4972315;28;20059;-82
2023/05/10 06:24:53;;;;;;;3.20;1.70;;;13.20;99.90;;;13.03;100.00;97269.69;4960624;28;20069;-82
2023/05/10 06:27:20;;;;;;;5.20;1.80;;;13.40;99.90;;;12.95;100.00;97272.75;4949897;28;20051;-82
2023/05/10 06:29:47;;;;;;;4.70;1.98;;;13.40;99.90;;;12.82;100.00;97276.97;4977611;28;20063;-84
2023/05/10 06:32:19;;;;;;;;;;;13.30;99.90;;;13.04;100.00;97281.78;4965402;28;20051;-84
2023/05/10 06:34:46;;;;;;;2.90;2.30;;;13.10;99.90;;;12.59;100.00;97287.81;4974170;28;19922;-81
2023/05/10 06:37:13;;;;;;;3.78;2.30;;;13.00;99.90;;;12.38;100.00;97289.84;4975035;28;20144;-80
2023/05/10 06:39:41;;;;;;;4.45;2.78;;;12.90;99.90;;;12.41;100.00;97300.94;4980491;28;20086;-81
2023/05/10 06:42:08;;;;;;;8.30;2.65;;;12.80;99.90;;;12.13;100.00;97305.03;4981357;28;20042;-81
2023/05/10 06:44:35;;;;;;;6.82;2.22;;;12.70;99.90;;;12.30;100.00;97303.28;4978809;28;20054;-82
2023/05/10 06:47:04;;;;;;;4.22;2.60;;;12.60;99.90;;;12.22;100.00;97321.06;4975390;28;20047;-80
2023/05/10 06:49:35;;;;;;;4.57;3.05;;;12.60;99.90;;;12.10;100.00;97312.97;4967812;28;20538;-81
2023/05/10 06:52:02;;;;;;;5.43;2.53;;;12.70;99.90;;;12.18;100.00;97315.19;4968809;28;20147;-81
2023/05/10 06:54:29;;;;;;;3.90;2.50;;;12.60;99.90;;;12.20;100.00;97321.16;4955673;28;20054;-81
2023/05/10 06:56:56;;;;;;;4.60;2.38;;;12.70;99.90;;;12.39;100.00;97326.22;4977531;28;20051;-81
2023/05/10 06:59:23;;;;;;;6.60;2.10;;;12.80;99.90;;;12.42;100.00;97343.41;4982048;28;20062;-82
2023/05/10 07:01:57;;;;;;;4.88;1.95;;;12.90;99.90;;;12.73;100.00;97327.81;4975926;28;20064;-80
2023/05/10 07:04:24;;;;;;;4.32;2.30;;;13.00;99.90;;;12.72;100.00;97335.69;4994292;28;20050;-81
2023/05/10 07:06:51;;;;;;;3.78;1.92;;;13.10;99.90;;;12.74;100.00;97326.88;4969241;28;20059;-81
2023/05/10 07:09:19;;;;;;;7.68;2.58;;;13.00;99.90;;;12.56;100.00;97333.09;4963055;28;20201;-81
2023/05/10 07:11:46;;;;;;;3.92;1.50;;;13.00;99.90;;;12.89;100.00;97332.19;4974392;28;20058;-81
2023/05/10 07:14:13;;;;;;;4.57;1.77;;;12.90;99.90;;;12.97;100.00;97340.38;4953509;28;20538;-82
2023/05/10 07:16:42;;;;;;;2.95;1.42;;;13.10;99.90;;;13.22;100.00;97334.63;4973690;28;20058;-80
2023/05/10 07:19:10;;;;;;;4.57;1.40;;;13.20;99.90;;;13.30;100.00;97326.41;4968676;28;20058;-81
2023/05/10 07:21:37;;;;;;;3.20;1.73;;;13.30;99.90;;;12.70;100.00;97327.13;4968713;28;20161;-81
2023/05/10 07:24:04;;;;;;;4.85;1.65;;;13.10;99.90;;;12.97;100.00;97309.94;4973921;28;20130;-80
2023/05/10 07:26:31;;;;;;;3.90;1.70;;;13.10;99.90;;;13.33;100.00;97307.97;4968429;28;20149;-83
2023/05/10 07:28:59;;;;;;;2.70;1.65;;;13.20;99.90;;;13.32;100.00;97303.69;4967687;28;20507;-83
2023/05/10 07:31:26;;;;;;;4.25;1.73;;;13.40;99.90;;;13.35;100.00;97312.19;4966314;28;20050;-82
2023/05/10 07:33:56;;;;;;;3.15;1.13;;;13.50;99.90;;;13.13;100.00;97286.47;4966067;28;20051;-81
2023/05/10 07:36:23;;;;;;;4.53;1.30;;;13.40;99.90;;;13.51;100.00;97288.66;4972059;28;20051;-81
2023/05/10 07:38:50;;;;;;;3.45;1.25;;;13.60;99.90;;;13.69;100.00;97288.50;4963983;28;20761;-81
2023/05/10 07:41:20;;;;;;;1.55;0.88;;;13.60;99.90;;;13.86;100.00;97266.59;4975426;28;20054;-82
2023/05/10 07:43:48;;;;;;;1.75;0.80;;;13.90;99.90;;;14.16;100.00;97267.34;4974738;28;20153;-81
2023/05/10 07:46:15;;;;;;;0.98;0.70;;;13.90;99.90;;;13.97;100.00;97262.41;4980432;28;20050;-81
2023/05/10 07:48:42;;;;;;;1.73;0.70;;;14.10;99.90;;;13.54;100.00;97274.59;4971853;28;20102;-80
2023/05/10 07:51:09;;;;;;;3.17;0.60;;;13.80;99.90;;;13.55;100.00;97271.91;4960425;28;20570;-82
2023/05/10 07:53:37;;;;;;;2.72;0.70;;;13.50;99.90;;;13.42;100.00;97267.50;4966360;28;20062;-81
2023/05/10 07:56:26;;;;;;;1.80;0.70;;;13.40;99.90;;;13.52;100.00;97268.63;4949390;28;20051;-82
2023/05/10 07:59:01;;;;;;;4.28;0.90;;;13.30;99.90;;;13.30;100.00;97287.31;4975353;28;20050;-80
2023/05/10 08:01:34;;;;;;;3.33;0.80;;;13.40;99.90;;;13.41;100.00;97287.53;4977209;28;20065;-82
2023/05/10 08:04:01;;;;;;;;;;;13.30;99.90;;;13.05;100.00;97280.03;4979381;28;20054;-81
2023/05/10 08:06:29;;;;;;;5.63;1.20;;;13.30;99.90;;;13.15;100.00;97294.22;4981975;28;19933;-81
2023/05/10 08:08:57;;;;;;;1.15;0.70;;;13.30;99.90;;;13.06;100.00;97287.75;4975461;28;20054;-81
2023/05/10 08:11:24;;;;;;;2.22;0.73;;;13.10;99.90;;;13.08;100.00;97283.28;4977800;28;20053;-82
2023/05/10 08:13:53;;;;;;;2.45;0.85;;;13.10;99.90;;;12.68;100.00;97282.09;4968629;28;20100;-82
2023/05/10 08:16:20;;;;;;;6.90;1.20;;;13.20;99.90;;;13.10;100.00;97284.06;4977568;28;20143;-80
2023/05/10 08:18:48;;;;;;;2.33;0.80;;;13.20;99.90;;;13.45;100.00;97296.84;4989129;28;20051;-82
2023/05/10 08:21:16;;;;;;;2.00;0.93;;;13.40;99.90;;;13.58;100.00;97296.97;4978951;28;20523;-82
2023/05/10 08:23:43;;;;;;;2.28;0.90;;;13.50;99.90;;;12.99;100.00;97296.84;4979782;28;20498;-81
2023/05/10 08:26:11;;;;;;;3.45;0.98;;;13.30;99.90;;;12.54;100.00;97311.50;4979533;28;20408;-80
2023/05/10 08:28:38;;;;;;;1.95;0.82;;;13.10;99.90;;;12.37;100.00;97306.41;4983745;28;20042;-82
2023/05/10 08:31:08;;;;;;;7.43;1.45;;;12.90;99.90;;;12.14;100.00;97330.13;4974689;28;20078;-82
2023/05/10 08:33:37;;;;;;;1.85;0.90;;;12.90;99.90;;;12.29;100.00;97333.69;4971009;28;20069;-81
2023/05/10 08:36:04;;;;;;;2.45;1.00;;;12.70;99.90;;;12.25;100.00;97339.97;4975512;28;20256;-82
2023/05/10 08:38:31;;;;;;;3.30;0.90;;;12.60;99.90;;;12.43;100.00;97345.94;4977232;28;20348;-81
2023/05/10 08:40:59;;;;;;;2.20;1.10;;;12.70;99.90;;;12.52;100.00;97348.06;4944437;28;20055;-81
2023/05/10 08:43:31;;;;;;;2.00;0.90;;;12.60;99.90;;;12.67;100.00;97345.53;4969676;28;20050;-80
2023/05/10 08:46:02;;;;;;;3.90;0.80;;;12.80;99.90;;;12.61;100.00;97346.69;4960278;28;20056;-81
2023/05/10 08:48:30;;;;;;;3.08;0.90;;;12.80;99.90;;;12.69;100.00;97341.09;4977069;28;20047;-81
2023/05/10 08:51:01;;;;;;;3.47;1.00;;;12.90;99.90;;;12.63;100.00;97333.59;4998069;28;20077;-81
2023/05/10 08:53:31;;;;;;;3.13;0.70;;;13.00;99.90;;;12.81;100.00;97334.34;4972077;28;20067;-80
2023/05/10 08:55:58;;;;;;;2.95;0.70;;;12.90;99.90;;;12.89;100.00;97334.78;4972133;28;20048;-79
2023/05/10 08:58:26;;;;;;;2.95;0.80;;;13.00;99.90;;;12.84;100.00;97324.63;4978406;28;20569;-80
2023/05/10 09:00:53;;;;;;;5.28;0.60;;;13.00;99.90;;;13.21;100.00;97324.31;4973866;28;20404;-80
2023/05/10 09:03:21;;;;;;;2.35;1.00;;;13.10;99.90;;;13.89;100.00;97316.84;4958069;28;20122;-81
2023/05/10 09:05:49;;;;;;;1.95;0.70;;;;;;;14.12;100.00;97310.22;4965808;28;20061;-81
2023/05/10 09:08:17;;;;;;;1.50;0.63;;;13.90;99.90;;;14.58;100.00;97303.94;4974579;28;20066;-80
2023/05/10 09:10:47;;;;;;;3.10;0.63;;;14.50;99.90;;;15.03;100.00;97291.50;4974198;28;20145;-82
2023/05/10 09:13:15;;;;;;;2.80;0.60;;;15.10;99.90;;;14.90;100.00;97290.63;4990113;28;20047;-81
2023/05/10 09:15:44;;;;;;;4.13;0.63;;;15.50;99.90;;;15.01;100.00;97285.53;4973626;28;20065;-80
2023/05/10 09:18:12;;;;;;;0.88;0.60;;;15.50;99.90;;;14.71;100.00;97291.78;4974178;28;21892;-83
2023/05/10 09:20:40;;;;;;;2.40;0.57;;;14.80;99.90;;;14.65;100.00;97307.84;4964134;28;20058;-79
2023/05/10 09:23:08;;;;;;;2.85;0.50;;;14.70;99.90;;;14.20;100.00;97309.75;4971412;28;20047;-80
2023/05/10 09:25:36;;;;;;;3.38;0.80;;;14.60;99.90;;;14.14;100.00;97310.13;4954534;28;20403;-80
2023/05/10 09:28:08;;;;;;;2.30;0.68;;;;;;;13.71;100.00;97318.78;4976068;28;20058;-80
2023/05/10 09:30:35;;;;;;;2.88;0.93;;;14.10;99.90;;;13.43;100.00;97318.72;4976642;28;20170;-82
2023/05/10 09:33:03;;;;;;;5.72;1.00;;;14.00;99.90;;;13.58;100.00;97326.47;4976532;28;20152;-80
2023/05/10 09:35:33;;;;;;;3.70;0.80;;;13.80;99.90;;;13.68;100.00;97333.75;4976825;28;20054;-82
2023/05/10 09:38:04;;;;;;;2.65;0.75;;;13.70;99.90;;;13.54;100.00;97324.97;4978633;28;20149;-81
2023/05/10 09:40:31;;;;;;;4.28;0.90;;;13.80;99.90;;;13.48;100.00;97316.66;4977745;28;20503;-80
2023/05/10 09:43:02;;;;;;;4.07;0.77;;;13.70;99.90;;;15.10;100.00;97302.38;4959178;28;20059;-81
2023/05/10 09:45:32;;;;;;;9.15;1.00;;;14.50;99.90;;;15.65;100.00;97276.00;4979968;28;20090;-80
2023/05/10 09:48:03;;;;;;;5.20;0.80;;;15.70;99.90;;;16.64;100.00;97282.28;4959523;28;20047;-80
2023/05/10 09:50:30;;;;;;;3.63;0.73;;;16.80;99.90;;;16.18;100.00;97252.31;4977318;28;20126;-79
2023/05/10 09:52:59;;;;;;;5.40;1.00;;;16.80;99.90;;;16.44;100.00;97294.16;4972463;28;20050;-80
2023/05/10 09:55:38;;;;;;;4.68;0.70;;;17.10;99.90;;;16.88;100.00;97277.06;4982197;28;20065;-79
2023/05/10 09:58:09;;;;;;;3.08;0.60;;;17.10;99.90;;;16.86;100.00;97256.22;4978410;28;20047;-80
2023/05/10 10:00:39;;;;;;;;;;;17.30;99.90;;;16.78;100.00;97274.25;4962041;28;20059;-80
2023/05/10 10:03:15;;;;;;;3.03;0.63;;;16.60;99.90;;;16.17;100.00;97262.91;4974172;28;20008;-79
2023/05/10 10:05:44;;;;;;;2.15;0.60;;;17.00;99.90;;;16.92;100.00;97291.63;4970544;28;20051;-82
2023/05/10 10:08:12;;;;;;;25.60;12.90;;;16.80;99.90;;;17.41;100.00;97292.41;4969869;28;20046;-81
2023/05/10 10:10:44;;;;;;;6.80;1.20;;;;;;;16.83;100.00;97281.78;4967060;28;20654;-81
2023/05/10 10:13:13;;;;;;;3.22;0.75;;;17.70;99.90;;;16.59;100.00;97277.34;4971771;28;20054;-81
2023/05/10 10:15:39;;;;;;;5.07;0.75;;;17.80;99.90;;;16.85;100.00;97279.91;4963802;28;20042;-80
2023/05/10 10:18:12;;;;;;;6.22;0.70;;;17.70;99.90;;;17.95;100.00;97274.28;4969906;28;20645;-84
2023/05/10 10:20:40;;;;;;;4.53;0.80;;;17.80;99.90;;;17.80;100.00;97283.31;4964802;28;20046;-81
2023/05/10 10:23:08;;;;;;;7.47;0.98;;;17.80;99.90;;;17.24;100.00;97283.16;4953515;28;20472;-81
2023/05/10 10:25:35;;;;;;;4.32;0.70;;;17.80;99.90;;;16.36;100.00;97278.16;4949055;28;20054;-80